createdAt,value
2019-03-13T00:00:28.425Z,0.50
2019-03-13T00:02:58.445Z,0.53
2019-03-13T00:05:28.393Z,0.53
2019-03-13T00:07:58.181Z,1.73
2019-03-13T00:10:28.107Z,1.30
2019-03-13T00:12:58.283Z,1.77
2019-03-13T00:15:28.209Z,0.50
2019-03-13T00:17:58.359Z,0.40
2019-03-13T00:20:29.587Z,1.97
2019-03-13T00:22:59.165Z,1.40
2019-03-13T00:25:28.872Z,0.53
2019-03-13T00:27:59.213Z,1.90
2019-03-13T00:30:28.854Z,1.17
2019-03-13T00:32:58.647Z,0.50
2019-03-13T00:35:28.509Z,1.47
2019-03-13T00:37:58.450Z,0.80
2019-03-13T00:40:28.348Z,0.70
2019-03-13T00:42:58.286Z,1.20
2019-03-13T00:45:28.277Z,0.40
2019-03-13T00:47:58.121Z,0.73
2019-03-13T00:50:30.607Z,0.67
2019-03-13T00:53:00.399Z,0.83
2019-03-13T00:55:30.507Z,0.50
2019-03-13T00:58:00.205Z,0.60
2019-03-13T01:01:00.878Z,1.40
2019-03-13T01:03:44.281Z,0.30
2019-03-13T01:06:18.189Z,1.00
2019-03-13T01:08:47.799Z,1.30
2019-03-13T01:11:17.411Z,0.50
2019-03-13T01:13:47.111Z,0.93
2019-03-13T01:16:16.788Z,0.43
2019-03-13T01:18:47.089Z,0.70
2019-03-13T01:21:16.781Z,0.47
2019-03-13T01:23:46.243Z,0.43
2019-03-13T01:26:15.818Z,0.50
2019-03-13T01:28:45.455Z,1.30
2019-03-13T01:31:39.814Z,0.77
2019-03-13T01:34:22.450Z,0.90
2019-03-13T01:36:51.915Z,0.30
2019-03-13T01:39:21.561Z,0.37
2019-03-13T01:41:51.082Z,0.30
2019-03-13T01:44:20.626Z,0.30
2019-03-13T01:46:50.190Z,0.50
2019-03-13T01:49:19.785Z,0.50
2019-03-13T01:51:49.332Z,0.50
2019-03-13T01:54:19.590Z,0.37
2019-03-13T01:56:49.156Z,0.90
2019-03-13T01:59:18.708Z,0.83
2019-03-13T02:01:48.239Z,0.30
2019-03-13T02:04:17.922Z,0.40
2019-03-13T02:06:47.368Z,0.77
2019-03-13T02:09:17.019Z,0.30
2019-03-13T02:11:46.586Z,0.30
2019-03-13T02:14:16.166Z,0.20
2019-03-13T02:16:45.821Z,0.30
2019-03-13T02:19:15.346Z,0.30
2019-03-13T02:21:44.898Z,0.40
2019-03-13T02:24:14.530Z,0.30
2019-03-13T02:26:44.189Z,0.43
2019-03-13T02:29:13.772Z,0.20
2019-03-13T02:31:43.385Z,0.20
2019-03-13T02:34:13.037Z,0.30
2019-03-13T02:36:42.657Z,0.20
2019-03-13T02:39:12.355Z,0.37
2019-03-13T02:41:41.920Z,0.20
2019-03-13T02:44:11.531Z,0.40
2019-03-13T02:46:41.181Z,0.20
2019-03-13T02:49:10.817Z,0.93
2019-03-13T02:51:40.309Z,0.20
2019-03-13T02:54:09.983Z,0.17
2019-03-13T02:56:39.744Z,0.10
2019-03-13T02:59:09.480Z,0.20
2019-03-13T03:01:53.358Z,0.10
2019-03-13T03:04:22.984Z,0.10
2019-03-13T03:06:52.555Z,0.00
2019-03-13T03:09:22.115Z,0.10
2019-03-13T03:11:51.654Z,0.10
2019-03-13T03:14:21.287Z,0.10
2019-03-13T03:16:50.892Z,0.20
2019-03-13T03:19:20.500Z,0.07
2019-03-13T03:21:50.017Z,0.30
2019-03-13T03:24:19.681Z,0.13
2019-03-13T03:26:50.952Z,0.10
2019-03-13T03:29:20.748Z,0.10
2019-03-13T03:31:50.478Z,0.10
2019-03-13T03:34:20.076Z,0.10
2019-03-13T03:36:49.759Z,0.23
2019-03-13T03:39:19.402Z,0.33
2019-03-13T03:41:48.905Z,0.10
2019-03-13T03:44:18.555Z,0.10
2019-03-13T03:46:48.137Z,0.10
2019-03-13T03:49:17.753Z,0.00
2019-03-13T03:51:47.313Z,0.10
2019-03-13T03:54:17.050Z,0.20
2019-03-13T03:56:47.120Z,0.10
2019-03-13T03:59:16.787Z,0.33
2019-03-13T04:01:46.383Z,0.10
2019-03-13T04:04:15.933Z,0.27
2019-03-13T04:06:45.586Z,0.10
2019-03-13T04:09:15.160Z,0.17
2019-03-13T04:11:44.795Z,0.10
2019-03-13T04:14:14.820Z,0.20
2019-03-13T04:16:44.353Z,0.30
2019-03-13T04:19:13.948Z,0.93
2019-03-13T04:21:43.609Z,0.63
2019-03-13T04:24:13.200Z,0.20
2019-03-13T04:26:45.996Z,0.10
2019-03-13T04:29:15.701Z,0.20
2019-03-13T04:31:45.323Z,0.20
2019-03-13T04:34:15.004Z,0.37
2019-03-13T04:36:44.557Z,1.47
2019-03-13T04:39:14.203Z,0.60
2019-03-13T04:41:43.867Z,0.90
2019-03-13T04:44:13.382Z,1.60
2019-03-13T04:46:42.897Z,0.90
2019-03-13T04:49:12.415Z,3.50
2019-03-13T04:51:42.023Z,3.13
2019-03-13T04:54:11.584Z,3.53
2019-03-13T04:56:41.191Z,3.80
2019-03-13T04:59:10.998Z,2.73
2019-03-13T05:01:40.525Z,1.80
2019-03-13T05:04:10.173Z,3.23
2019-03-13T05:06:39.790Z,2.23
2019-03-13T05:09:11.176Z,3.57
2019-03-13T05:11:40.691Z,2.03
2019-03-13T05:14:10.288Z,5.20
2019-03-13T05:16:39.848Z,3.07
2019-03-13T05:19:09.498Z,4.40
2019-03-13T05:21:39.341Z,3.83
2019-03-13T05:24:08.920Z,5.90
2019-03-13T05:26:38.612Z,5.03
2019-03-13T05:29:08.289Z,3.40
2019-03-13T05:31:37.980Z,5.27
2019-03-13T05:34:07.562Z,4.07
2019-03-13T05:36:38.470Z,2.70
2019-03-13T05:39:08.747Z,6.43
2019-03-13T05:41:38.509Z,1.70
2019-03-13T05:44:08.375Z,4.60
2019-03-13T05:46:37.950Z,6.10
2019-03-13T05:49:07.873Z,5.77
2019-03-13T05:51:37.486Z,4.83
2019-03-13T05:54:07.168Z,4.63
2019-03-13T05:56:36.771Z,2.13
2019-03-13T05:59:06.401Z,6.90
2019-03-13T06:01:36.202Z,6.57
2019-03-13T06:04:05.868Z,4.47
2019-03-13T06:06:35.510Z,4.40
2019-03-13T06:09:06.536Z,3.93
2019-03-13T06:11:36.348Z,5.33
2019-03-13T06:14:07.855Z,5.93
2019-03-13T06:16:40.134Z,10.30
2019-03-13T06:19:09.949Z,9.90
2019-03-13T06:21:39.532Z,10.97
2019-03-13T06:24:09.014Z,7.10
2019-03-13T06:26:38.978Z,7.30
2019-03-13T06:29:11.915Z,9.73
2019-03-13T06:31:42.265Z,6.77
2019-03-13T06:34:12.221Z,21.37
2019-03-13T06:36:41.967Z,11.47
2019-03-13T06:39:14.593Z,14.43
2019-03-13T06:41:44.212Z,12.90
2019-03-13T06:44:13.904Z,11.03
2019-03-13T06:46:43.572Z,8.50
2019-03-13T06:49:13.234Z,12.00
2019-03-13T06:51:42.723Z,10.20
2019-03-13T06:54:12.326Z,11.73
2019-03-13T06:56:41.909Z,11.70
2019-03-13T06:59:34.498Z,22.67
2019-03-13T07:02:29.031Z,15.63
2019-03-13T07:05:12.028Z,15.37
2019-03-13T07:08:02.034Z,21.93
2019-03-13T07:10:50.299Z,14.97
2019-03-13T07:13:32.870Z,14.13
2019-03-13T07:16:30.709Z,23.23
2019-03-13T07:19:25.569Z,15.20
2019-03-13T07:22:22.897Z,24.97
2019-03-13T07:25:23.748Z,23.17
2019-03-13T07:28:30.513Z,20.00
2019-03-13T07:31:17.613Z,20.57
2019-03-13T07:34:04.939Z,22.07
2019-03-13T07:36:53.744Z,18.80
2019-03-13T07:42:54.476Z,27.07
2019-03-13T07:45:33.694Z,30.57
2019-03-13T07:51:42.702Z,20.20
2019-03-13T07:54:38.128Z,21.57
2019-03-13T07:57:35.918Z,28.70
2019-03-13T08:03:25.184Z,20.27
2019-03-13T08:10:20.782Z,26.10
2019-03-13T08:13:08.042Z,31.40
2019-03-13T08:15:59.287Z,22.00
2019-03-13T08:18:49.248Z,20.20
2019-03-13T08:21:52.885Z,29.10
2019-03-13T08:24:45.303Z,24.17
2019-03-13T08:27:42.858Z,21.83
2019-03-13T08:30:28.899Z,25.30
2019-03-13T08:33:23.233Z,23.47
2019-03-13T08:36:23.791Z,23.50
2019-03-13T08:39:12.231Z,29.47
2019-03-13T08:42:03.488Z,24.97
2019-03-13T08:44:58.119Z,17.47
2019-03-13T08:47:45.507Z,16.73
2019-03-13T08:50:37.947Z,21.23
2019-03-13T08:53:14.930Z,23.87
2019-03-13T08:56:00.917Z,18.00
2019-03-13T08:58:51.824Z,25.37
2019-03-13T09:01:39.912Z,24.67
2019-03-13T09:04:33.299Z,28.30
2019-03-13T09:07:21.332Z,25.63
2019-03-13T09:10:05.124Z,28.53
2019-03-13T09:12:43.563Z,25.43
2019-03-13T09:15:26.522Z,25.20
2019-03-13T09:18:16.008Z,18.07
2019-03-13T09:21:11.252Z,20.63
2019-03-13T09:23:58.628Z,18.83
2019-03-13T09:26:52.396Z,19.00
2019-03-13T09:29:49.569Z,18.33
2019-03-13T09:32:53.352Z,18.07
2019-03-13T09:35:48.058Z,11.73
2019-03-13T09:38:27.277Z,21.70
2019-03-13T09:41:09.318Z,17.50
2019-03-13T09:43:59.685Z,18.50
2019-03-13T09:46:52.653Z,17.60
2019-03-13T09:49:32.822Z,13.30
2019-03-13T09:52:17.528Z,12.40
2019-03-13T09:55:05.968Z,18.17
2019-03-13T09:57:54.739Z,13.63
2019-03-13T10:00:31.807Z,10.00
2019-03-13T10:03:19.169Z,9.70
2019-03-13T10:06:11.004Z,8.60
2019-03-13T10:09:02.677Z,14.20
2019-03-13T10:11:45.556Z,8.70
2019-03-13T10:14:43.373Z,12.00
2019-03-13T10:17:23.746Z,15.87
2019-03-13T10:20:25.017Z,13.53
2019-03-13T10:23:16.331Z,15.90
2019-03-13T10:26:05.280Z,14.70
2019-03-13T10:28:52.500Z,19.57
2019-03-13T10:31:39.106Z,22.63
2019-03-13T10:34:39.995Z,18.47
2019-03-13T10:37:23.615Z,17.03
2019-03-13T10:40:21.765Z,19.30
2019-03-13T10:43:09.016Z,20.33
2019-03-13T10:46:00.335Z,20.77
2019-03-13T10:48:53.215Z,15.30
2019-03-13T10:51:40.172Z,23.57
2019-03-13T10:54:25.380Z,20.33
2019-03-13T10:57:13.814Z,21.13
2019-03-13T11:00:04.413Z,23.60
2019-03-13T11:02:45.768Z,19.07
2019-03-13T11:05:34.496Z,15.20
2019-03-13T11:08:09.530Z,18.77
2019-03-13T11:10:52.163Z,13.33
2019-03-13T11:13:44.905Z,17.63
2019-03-13T11:16:24.870Z,22.00
2019-03-13T11:19:09.945Z,19.23
2019-03-13T11:21:46.428Z,16.67
2019-03-13T11:24:27.662Z,32.17
2019-03-13T11:27:03.463Z,16.30
2019-03-13T11:29:52.345Z,14.00
2019-03-13T11:32:39.865Z,13.97
2019-03-13T11:35:31.272Z,12.90
2019-03-13T11:38:18.622Z,10.63
2019-03-13T11:41:02.534Z,13.33
2019-03-13T11:43:42.708Z,10.83
2019-03-13T11:46:37.598Z,11.47
2019-03-13T11:49:14.893Z,12.87
2019-03-13T11:52:03.153Z,6.30
2019-03-13T11:54:57.939Z,11.57
2019-03-13T11:57:52.227Z,17.20
2019-03-13T12:00:47.080Z,16.50
2019-03-13T12:03:48.057Z,11.93
2019-03-13T12:06:37.695Z,14.37
2019-03-13T12:09:27.117Z,17.77
2019-03-13T12:12:25.106Z,13.70
2019-03-13T12:15:12.398Z,10.73
2019-03-13T12:18:04.261Z,11.37
2019-03-13T12:20:51.540Z,11.23
2019-03-13T12:23:49.641Z,12.67
2019-03-13T12:26:38.456Z,10.23
2019-03-13T12:29:30.266Z,9.73
2019-03-13T12:32:18.815Z,14.87
2019-03-13T12:35:10.571Z,57.13
2019-03-13T12:37:53.861Z,15.80
2019-03-13T12:40:41.953Z,20.70
2019-03-13T12:43:39.989Z,12.60
2019-03-13T12:46:29.125Z,21.17
2019-03-13T12:49:10.840Z,17.00
2019-03-13T12:51:58.101Z,10.67
2019-03-13T12:54:38.255Z,13.70
2019-03-13T12:57:27.203Z,12.70
2019-03-13T13:00:16.259Z,15.33
2019-03-13T13:03:07.934Z,15.43
2019-03-13T13:05:53.631Z,16.03
2019-03-13T13:08:45.689Z,16.63
2019-03-13T13:11:43.756Z,12.23
2019-03-13T13:14:44.146Z,20.33
2019-03-13T13:17:31.516Z,15.93
2019-03-13T13:20:01.444Z,16.93
2019-03-13T13:22:31.366Z,22.87
2019-03-13T13:25:00.895Z,12.53
2019-03-13T13:27:30.516Z,16.20
2019-03-13T13:30:00.358Z,14.60
2019-03-13T13:32:30.156Z,12.23
2019-03-13T13:34:59.865Z,17.30
2019-03-13T13:37:29.700Z,10.10
2019-03-13T13:39:59.479Z,11.43
2019-03-13T13:42:29.055Z,9.13
2019-03-13T13:44:59.095Z,9.50
2019-03-13T13:47:28.686Z,10.87
2019-03-13T13:50:00.141Z,14.00
2019-03-13T13:52:29.835Z,12.40
2019-03-13T13:54:59.565Z,10.63
2019-03-13T13:57:29.384Z,11.93
2019-03-13T13:59:59.325Z,13.27
2019-03-13T14:02:29.198Z,15.20
2019-03-13T14:04:58.835Z,12.77
2019-03-13T14:07:28.595Z,18.73
2019-03-13T14:09:58.434Z,11.07
2019-03-13T14:12:28.362Z,12.80
2019-03-13T14:14:58.246Z,12.73
2019-03-13T14:17:27.958Z,12.43
2019-03-13T14:19:57.526Z,10.63
2019-03-13T14:22:28.434Z,9.87
2019-03-13T14:24:58.230Z,11.03
2019-03-13T14:27:28.123Z,11.33
2019-03-13T14:29:58.058Z,12.20
2019-03-13T14:32:27.981Z,61.53
2019-03-13T14:34:57.813Z,12.30
2019-03-13T14:37:27.570Z,11.13
2019-03-13T14:39:57.876Z,11.30
2019-03-13T14:42:27.705Z,16.37
2019-03-13T14:45:00.360Z,11.57
2019-03-13T14:47:30.367Z,16.90
2019-03-13T14:50:00.410Z,18.10
2019-03-13T14:52:30.097Z,14.93
2019-03-13T14:54:59.602Z,13.87
2019-03-13T14:57:29.342Z,15.63
2019-03-13T14:59:58.884Z,16.93
2019-03-13T15:02:28.572Z,14.27
2019-03-13T15:04:58.549Z,15.57
2019-03-13T15:07:28.513Z,14.13
2019-03-13T15:09:58.361Z,15.53
2019-03-13T15:12:28.412Z,8.90
2019-03-13T15:14:58.228Z,17.70
2019-03-13T15:17:28.311Z,16.93
2019-03-13T15:19:58.149Z,16.23
2019-03-13T15:22:27.948Z,11.80
2019-03-13T15:24:58.312Z,11.77
2019-03-13T15:27:28.208Z,13.53
2019-03-13T15:29:59.275Z,13.60
2019-03-13T15:32:29.161Z,12.00
2019-03-13T15:34:58.816Z,13.53
2019-03-13T15:37:28.447Z,13.47
2019-03-13T15:39:58.402Z,12.60
2019-03-13T15:42:28.162Z,15.70
2019-03-13T15:44:58.027Z,13.57
2019-03-13T15:47:28.140Z,9.70
2019-03-13T15:49:58.169Z,14.07
2019-03-13T15:52:28.047Z,12.10
2019-03-13T15:54:57.751Z,13.60
2019-03-13T15:57:27.818Z,13.73
2019-03-13T15:59:57.494Z,19.33
2019-03-13T16:02:27.498Z,14.53
2019-03-13T16:04:57.231Z,16.70
2019-03-13T16:07:27.121Z,11.40
2019-03-13T16:09:57.088Z,13.80
2019-03-13T16:12:27.121Z,8.63
2019-03-13T16:14:57.162Z,11.50
2019-03-13T16:17:27.009Z,13.53
2019-03-13T16:19:56.955Z,9.37
2019-03-13T16:22:27.076Z,12.63
2019-03-13T16:24:57.114Z,8.63
2019-03-13T16:27:27.143Z,10.90
2019-03-13T16:29:59.754Z,15.93
2019-03-13T16:32:29.357Z,15.13
2019-03-13T16:34:58.893Z,12.00
2019-03-13T16:37:28.613Z,9.13
2019-03-13T16:39:58.316Z,7.47
2019-03-13T16:42:28.183Z,12.17
2019-03-13T16:44:57.950Z,10.40
2019-03-13T16:47:29.250Z,11.87
2019-03-13T16:49:59.180Z,7.90
2019-03-13T16:52:29.213Z,9.03
2019-03-13T16:55:02.083Z,7.93
2019-03-13T16:57:31.973Z,9.27
2019-03-13T17:00:01.815Z,9.13
2019-03-13T17:02:31.489Z,6.77
2019-03-13T17:05:00.973Z,7.53
2019-03-13T17:07:30.748Z,9.53
2019-03-13T17:10:00.603Z,8.47
2019-03-13T17:12:30.864Z,6.10
2019-03-13T17:15:00.975Z,6.93
2019-03-13T17:17:30.658Z,7.27
2019-03-13T17:20:00.393Z,10.43
2019-03-13T17:22:30.159Z,10.23
2019-03-13T17:25:00.158Z,10.43
2019-03-13T17:27:30.189Z,9.60
2019-03-13T17:30:00.354Z,10.73
2019-03-13T17:32:30.125Z,9.10
2019-03-13T17:34:59.824Z,11.47
2019-03-13T17:37:29.574Z,10.07
2019-03-13T17:39:59.205Z,11.57
2019-03-13T17:42:28.859Z,11.23
2019-03-13T17:44:58.867Z,11.43
2019-03-13T17:47:28.540Z,16.87
2019-03-13T17:49:58.545Z,12.47
2019-03-13T17:52:28.570Z,12.33
2019-03-13T17:54:58.437Z,11.00
2019-03-13T17:57:28.325Z,12.70
2019-03-13T17:59:58.006Z,7.80
2019-03-13T18:02:27.909Z,9.13
2019-03-13T18:04:59.876Z,11.03
2019-03-13T18:07:29.764Z,14.60
2019-03-13T18:09:59.419Z,6.27
2019-03-13T18:12:29.429Z,8.87
2019-03-13T18:14:59.775Z,12.50
2019-03-13T18:17:29.609Z,12.30
2019-03-13T18:19:59.184Z,17.00
2019-03-13T18:22:28.928Z,16.07
2019-03-13T18:24:58.606Z,15.53
2019-03-13T18:27:28.574Z,16.60
2019-03-13T18:30:00.372Z,9.77
2019-03-13T18:32:41.394Z,13.67
2019-03-13T18:35:01.957Z,14.33
2019-03-13T18:37:31.648Z,9.50
2019-03-13T18:40:01.496Z,9.00
2019-03-13T18:42:31.179Z,9.93
2019-03-13T18:45:01.098Z,13.53
2019-03-13T18:47:30.814Z,15.50
2019-03-13T18:50:00.559Z,14.53
2019-03-13T18:52:30.559Z,13.10
2019-03-13T18:55:00.383Z,15.03
2019-03-13T18:57:30.041Z,11.43
2019-03-13T18:59:59.735Z,11.10
2019-03-13T19:02:29.424Z,16.67
2019-03-13T19:04:58.967Z,11.00
2019-03-13T19:07:28.566Z,16.57
2019-03-13T19:09:58.351Z,13.03
2019-03-13T19:12:29.606Z,21.10
2019-03-13T19:14:59.455Z,18.57
2019-03-13T19:17:32.239Z,12.67
2019-03-13T19:20:01.914Z,14.57
2019-03-13T19:22:31.672Z,17.03
2019-03-13T19:25:01.359Z,18.23
2019-03-13T19:27:31.441Z,16.03
2019-03-13T19:30:01.333Z,18.10
2019-03-13T19:32:31.131Z,20.13
2019-03-13T19:35:03.424Z,28.23
2019-03-13T19:37:33.544Z,24.20
2019-03-13T19:40:03.184Z,16.57
2019-03-13T19:42:33.298Z,19.73
2019-03-13T19:45:06.294Z,20.30
2019-03-13T19:47:36.302Z,20.23
2019-03-13T19:50:08.467Z,20.63
2019-03-13T19:52:40.202Z,29.20
2019-03-13T19:55:12.515Z,20.90
2019-03-13T19:57:43.269Z,21.83
2019-03-13T20:00:16.654Z,17.17
2019-03-13T20:02:59.557Z,20.93
2019-03-13T20:05:22.047Z,18.83
2019-03-13T20:07:52.736Z,25.60
2019-03-13T20:10:23.853Z,18.37
2019-03-13T20:12:53.760Z,16.07
2019-03-13T20:15:26.343Z,20.50
2019-03-13T20:17:56.263Z,28.53
2019-03-13T20:20:26.093Z,16.60
2019-03-13T20:22:57.623Z,22.43
2019-03-13T20:25:27.422Z,16.87
2019-03-13T20:27:58.253Z,24.30
2019-03-13T20:30:28.674Z,33.27
2019-03-13T20:32:58.466Z,26.30
2019-03-13T20:35:28.271Z,26.87
2019-03-13T20:37:58.484Z,23.73
2019-03-13T20:40:28.367Z,18.37
2019-03-13T20:42:58.419Z,19.27
2019-03-13T20:45:28.596Z,21.53
2019-03-13T20:47:59.216Z,22.23
2019-03-13T20:50:36.469Z,20.90
2019-03-13T20:53:01.236Z,25.87
2019-03-13T20:55:30.821Z,15.03
2019-03-13T20:58:00.549Z,22.00
2019-03-13T21:00:34.413Z,28.10
2019-03-13T21:03:02.434Z,23.10
2019-03-13T21:05:35.213Z,22.33
2019-03-13T21:08:04.985Z,27.97
2019-03-13T21:10:36.532Z,22.27
2019-03-13T21:13:06.462Z,24.27
2019-03-13T21:15:36.599Z,22.93
2019-03-13T21:18:06.524Z,34.63
2019-03-13T21:20:39.382Z,20.10
2019-03-13T21:23:09.008Z,21.93
2019-03-13T21:25:38.835Z,16.53
2019-03-13T21:28:08.549Z,21.37
2019-03-13T21:30:38.484Z,18.33
2019-03-13T21:33:08.245Z,15.60
2019-03-13T21:35:38.114Z,16.83
2019-03-13T21:38:07.914Z,16.07
2019-03-13T21:40:37.851Z,16.43
2019-03-13T21:43:07.626Z,21.23
2019-03-13T21:45:41.525Z,23.07
2019-03-13T21:48:08.842Z,29.77
2019-03-13T21:50:38.451Z,25.80
2019-03-13T21:53:08.356Z,24.43
2019-03-13T21:55:38.027Z,28.57
2019-03-13T21:58:07.670Z,23.07
2019-03-13T22:00:39.475Z,24.90
2019-03-13T22:03:10.972Z,21.07
2019-03-13T22:05:41.811Z,18.73
2019-03-13T22:08:13.821Z,19.03
2019-03-13T22:10:45.970Z,25.07
2019-03-13T22:13:16.885Z,20.50
2019-03-13T22:15:47.387Z,19.77
2019-03-13T22:18:20.016Z,23.37
2019-03-13T22:20:50.358Z,24.27
2019-03-13T22:23:20.839Z,19.70
2019-03-13T22:25:50.430Z,21.30
2019-03-13T22:28:20.080Z,17.77
2019-03-13T22:30:50.002Z,23.10
2019-03-13T22:33:20.580Z,17.20
2019-03-13T22:35:50.805Z,20.17
2019-03-13T22:38:20.507Z,17.90
2019-03-13T22:40:50.582Z,20.73
2019-03-13T22:43:20.128Z,23.07
2019-03-13T22:45:50.205Z,15.53
2019-03-13T22:48:19.873Z,18.43
2019-03-13T22:50:49.468Z,16.77
2019-03-13T22:53:19.212Z,18.50
2019-03-13T22:55:49.001Z,9.60
2019-03-13T22:58:18.667Z,9.57
2019-03-13T23:01:06.164Z,9.13
2019-03-13T23:03:35.821Z,13.73
2019-03-13T23:06:05.720Z,11.97
2019-03-13T23:08:35.503Z,10.13
2019-03-13T23:11:05.262Z,10.40
2019-03-13T23:13:35.044Z,11.73
2019-03-13T23:16:05.443Z,11.03
2019-03-13T23:18:35.440Z,10.10
2019-03-13T23:21:05.161Z,11.17
2019-03-13T23:23:34.731Z,12.27
2019-03-13T23:26:04.319Z,10.13
2019-03-13T23:28:34.107Z,8.03
2019-03-13T23:31:04.394Z,9.03
2019-03-13T23:33:33.905Z,13.77
2019-03-13T23:36:03.558Z,12.20
2019-03-13T23:38:33.348Z,12.17
2019-03-13T23:41:02.962Z,11.57
2019-03-13T23:43:32.626Z,12.73
2019-03-13T23:46:02.232Z,8.90
2019-03-13T23:48:31.876Z,9.23
2019-03-13T23:51:01.580Z,9.17
2019-03-13T23:53:31.161Z,9.83
2019-03-13T23:56:00.837Z,5.67
2019-03-13T23:58:30.488Z,9.40
